Luminous Kobe-2 — JJ3868 — position and weather

sailwx.info

Track history (hours):
 
Tides and Currents Weather Stations Pressure Air Temp Water Temp Dewpoint Dewpoint Depression Visibility Wind Speed Wind Dir Waves Ship Positions

Luminous Kobe-2

Last reported at 2015-Jul-28 09:28 UTC. Time now 2015-Jul-28 10:22 UTC.
Position N 34°41' E 135°11'.

Length 105 m; draft 4.5 m.

Type: Passenger vessel. MMSI: 431000469.

Date/timePositionNaut miles runAvg speedWind from/ knotsBaromVisibWave heightAir tempDewpointWater temp
2015-Jul-28 09:28N 34°41' E 135°11'5 5.5
2015-Jul-28 08:33N 34°37' E 135°07'5 4.4
2015-Jul-28 07:24N 34°41' E 135°11'0 0.0
2015-Jul-28 06:30N 34°41' E 135°11'0 0.0
2015-Jul-28 05:30N 34°41' E 135°11'2 2.4
2015-Jul-28 04:34N 34°39' E 135°11'2 2.1
2015-Jul-28 03:34N 34°37' E 135°13'4 3.4
2015-Jul-28 02:21N 34°41' E 135°11'0 0.0
2015-Jul-28 01:21N 34°41' E 135°11'0 0.0
2015-Jul-28 00:21N 34°41' E 135°11'0 0.0
2015-Jul-27 23:33N 34°41' E 135°11'0 0.0
2015-Jul-27 22:33N 34°41' E 135°11'0 0.0
2015-Jul-27 21:27N 34°41' E 135°11'0 0.0
2015-Jul-27 20:33N 34°41' E 135°11'0 0.0
2015-Jul-27 19:33N 34°41' E 135°11'0 0.0
2015-Jul-27 18:33N 34°41' E 135°11'0 0.0
2015-Jul-27 17:33N 34°41' E 135°11'0 0.0
2015-Jul-27 16:33N 34°41' E 135°11'0 0.0
2015-Jul-27 15:33N 34°41' E 135°11'0 0.0
2015-Jul-27 14:33N 34°41' E 135°11'0 0.0
2015-Jul-27 13:33N 34°41' E 135°11'0 0.0
2015-Jul-27 12:33N 34°41' E 135°11'6 6.3
2015-Jul-27 11:33N 34°36' E 135°07'1 1.0
2015-Jul-27 10:33N 34°37' E 135°06'6 6.0
2015-Jul-27 09:33N 34°41' E 135°11'5 5.0
2015-Jul-27 08:33N 34°37' E 135°07'5 4.7
2015-Jul-27 07:30N 34°41' E 135°11'0 0.0
2015-Jul-27 06:30N 34°41' E 135°11'0 0.0
2015-Jul-27 05:24N 34°41' E 135°11'2 2.1
2015-Jul-27 04:33N 34°39' E 135°11'2 2.4
2015-Jul-27 03:33N 34°37' E 135°13'4 3.9
2015-Jul-27 02:33N 34°41' E 135°11'0 0.0
2015-Jul-27 01:33N 34°41' E 135°11'0 0.0
2015-Jul-27 00:33N 34°41' E 135°11'0 0.0
2015-Jul-26 23:33N 34°41' E 135°11'0 0.0
2015-Jul-26 21:33N 34°41' E 135°11'0 0.0
2015-Jul-26 20:33N 34°41' E 135°11'0 0.0
2015-Jul-26 19:33N 34°41' E 135°11'0 0.0
2015-Jul-26 18:33N 34°41' E 135°11'0 0.0
2015-Jul-26 17:27N 34°41' E 135°11'0 0.0
2015-Jul-26 16:33N 34°41' E 135°11'0 0.0
2015-Jul-26 15:33N 34°41' E 135°11'0 0.0
2015-Jul-26 14:33N 34°41' E 135°11'0 0.0
2015-Jul-26 13:21N 34°41' E 135°11'0 0.0
2015-Jul-26 12:33N 34°41' E 135°11'7 6.9
2015-Jul-26 11:33N 34°35' E 135°06'1 1.3
2015-Jul-26 10:34N 34°36' E 135°07'6 4.7
2015-Jul-26 09:20N 34°41' E 135°11'1 1.5
2015-Jul-26 08:33N 34°40' E 135°12'3 2.8
2015-Jul-26 07:33N 34°37' E 135°13'4 3.4
2015-Jul-26 06:26N 34°41' E 135°11'0 0.0
2015-Jul-26 05:32N 34°41' E 135°11'2 1.9
2015-Jul-26 04:33N 34°39' E 135°11'2 1.8
2015-Jul-26 03:33N 34°38' E 135°13'3 2.9
2015-Jul-26 02:22N 34°41' E 135°11'0 0.0
2015-Jul-26 01:28N 34°41' E 135°11'0 0.0
2015-Jul-26 00:22N 34°41' E 135°11'0 0.0
2015-Jul-25 23:28N 34°41' E 135°11'0 0.0
2015-Jul-25 22:28N 34°41' E 135°11'0 0.0
2015-Jul-25 21:28N 34°41' E 135°11'0 0.0
2015-Jul-25 20:28N 34°41' E 135°11'0 0.0
2015-Jul-25 19:28N 34°41' E 135°11'0 0.0
2015-Jul-25 18:28N 34°41' E 135°11'0 0.0
2015-Jul-25 17:28N 34°41' E 135°11'0 0.0
2015-Jul-25 16:28N 34°41' E 135°11'0 0.0
2015-Jul-25 15:28N 34°41' E 135°11'0 0.0
2015-Jul-25 14:28N 34°41' E 135°11'0 0.0
2015-Jul-25 13:16N 34°41' E 135°11'0 0.0
2015-Jul-25 12:33N 34°41' E 135°11'6 6.1
2015-Jul-25 11:33N 34°42' E 135°19'4 4.0
2015-Jul-25 10:33N 34°38' E 135°17'5 4.3
2015-Jul-25 09:22N 34°41' E 135°11'1 0.7
2015-Jul-25 08:34N 34°40' E 135°12'3 3.3
2015-Jul-25 07:34N 34°37' E 135°13'4 3.6
2015-Jul-25 06:28N 34°41' E 135°11'0 0.0
2015-Jul-25 05:28N 34°41' E 135°11'2 1.9
2015-Jul-25 04:33N 34°39' E 135°11'2 1.8
2015-Jul-25 03:33N 34°38' E 135°12'3 3.2
2015-Jul-25 02:30N 34°41' E 135°11'0 0.0
2015-Jul-25 01:30N 34°41' E 135°11'0 0.0
2015-Jul-25 00:30N 34°41' E 135°11'0 0.0
2015-Jul-24 23:30N 34°41' E 135°11'0 0.0
2015-Jul-24 22:30N 34°41' E 135°11'0 0.0
2015-Jul-24 21:30N 34°41' E 135°11'0 0.0
2015-Jul-24 20:30N 34°41' E 135°11'0 0.0
2015-Jul-24 19:30N 34°41' E 135°11'0 0.0
2015-Jul-24 18:30N 34°41' E 135°11'0 0.0
2015-Jul-24 17:30N 34°41' E 135°11'0 0.0
2015-Jul-24 16:30N 34°41' E 135°11'0 0.0
2015-Jul-24 15:30N 34°41' E 135°11'0 0.0
2015-Jul-24 14:18N 34°41' E 135°11'0 0.0
2015-Jul-24 13:30N 34°41' E 135°11'0 0.0
2015-Jul-24 12:30N 34°41' E 135°11'7 7.6
2015-Jul-24 11:33N 34°35' E 135°06'2 1.9
2015-Jul-24 10:33N 34°37' E 135°07'5 5.4
2015-Jul-24 09:33N 34°41' E 135°11'5 4.9
2015-Jul-24 08:34N 34°37' E 135°07'5 4.8
2015-Jul-24 07:32N 34°41' E 135°11'0 0.0
2015-Jul-24 06:32N 34°41' E 135°11'0 0.0
2015-Jul-24 05:26N 34°41' E 135°11'2 2.6
2015-Jul-24 04:33N 34°39' E 135°11'2 2.2
2015-Jul-24 03:33N 34°37' E 135°13'4 3.8
2015-Jul-24 02:30N 34°41' E 135°11'0 0.0
2015-Jul-24 01:30N 34°41' E 135°11'0 0.0
2015-Jul-24 00:30N 34°41' E 135°11'0 0.0
2015-Jul-23 23:30N 34°41' E 135°11'0 0.0
2015-Jul-23 22:30N 34°41' E 135°11'0 0.0
2015-Jul-23 21:30N 34°41' E 135°11'0 0.0
2015-Jul-23 20:30N 34°41' E 135°11'0 0.0
2015-Jul-23 19:30N 34°41' E 135°11'0 0.0
2015-Jul-23 18:30N 34°41' E 135°11'0 0.0
2015-Jul-23 17:30N 34°41' E 135°11'0 0.0
2015-Jul-23 16:30N 34°41' E 135°11'0 0.0
2015-Jul-23 15:30N 34°41' E 135°11'0 0.0
2015-Jul-23 14:30N 34°41' E 135°11'0 0.0
2015-Jul-23 13:30N 34°41' E 135°11'0 0.1
2015-Jul-23 12:12N 34°41' E 135°11'6 9.3
2015-Jul-23 11:33N 34°36' E 135°07'1 0.9
2015-Jul-23 10:33N 34°37' E 135°07'6 5.6
2015-Jul-23 09:33N 34°41' E 135°11'5 5.3
2015-Jul-23 08:34N 34°37' E 135°07'5 4.3
2015-Jul-23 07:19N 34°41' E 135°11'0 0.0
2015-Jul-23 06:25N 34°41' E 135°11'0 0.0
2015-Jul-23 05:25N 34°41' E 135°11'2 2.6
2015-Jul-23 04:33N 34°39' E 135°11'2 1.6
2015-Jul-23 03:33N 34°37' E 135°13'3 3.5
2015-Jul-23 02:33N 34°41' E 135°11'0 0.0
2015-Jul-23 01:33N 34°41' E 135°11'0 0.0
2015-Jul-23 00:33N 34°41' E 135°11'0 0.0
2015-Jul-22 23:33N 34°41' E 135°11'0 0.0
2015-Jul-22 22:33N 34°41' E 135°11'0 0.0
2015-Jul-22 21:33N 34°41' E 135°11'0 0.0
2015-Jul-22 20:33N 34°41' E 135°11'0 0.0
2015-Jul-22 19:27N 34°41' E 135°11'0 0.0
2015-Jul-22 18:33N 34°41' E 135°11'0 0.0
2015-Jul-22 17:33N 34°41' E 135°11'0 0.0
2015-Jul-22 16:33N 34°41' E 135°11'0 0.0
2015-Jul-22 15:33N 34°41' E 135°11'0 0.0
2015-Jul-22 14:33N 34°41' E 135°11'0 0.0
2015-Jul-22 13:27N 34°41' E 135°11'0 0.0
2015-Jul-22 12:31N 34°41' E 135°11'6 6.7
2015-Jul-22 11:33N 34°36' E 135°06'1 0.9
2015-Jul-22 10:33N 34°37' E 135°07'6 5.5
2015-Jul-22 09:32N 34°41' E 135°11'5 5.1
2015-Jul-22 08:34N 34°37' E 135°08'5 4.4
2015-Jul-22 07:26N 34°41' E 135°11'0 0.0
2015-Jul-22 06:32N 34°41' E 135°11'0 0.0
2015-Jul-22 05:26N 34°41' E 135°11'2 2.8
2015-Jul-22 04:33N 34°38' E 135°11'2 1.7
2015-Jul-22 03:33N 34°37' E 135°13'4 3.7
2015-Jul-22 02:32N 34°41' E 135°11'0 0.0
2015-Jul-22 01:26N 34°41' E 135°11'0 0.0
2015-Jul-22 00:32N 34°41' E 135°11'0 0.0
2015-Jul-21 23:14N 34°41' E 135°11'0 0.0
2015-Jul-21 22:32N 34°41' E 135°11'0 0.0
2015-Jul-21 21:26N 34°41' E 135°11'0 0.0
2015-Jul-21 20:32N 34°41' E 135°11'0 0.0
2015-Jul-21 19:26N 34°41' E 135°11'0 0.0
2015-Jul-21 18:32N 34°41' E 135°11'0 0.0
2015-Jul-21 17:32N 34°41' E 135°11'0 0.0
2015-Jul-21 16:32N 34°41' E 135°11'0 0.0
2015-Jul-21 15:32N 34°41' E 135°11'0 0.0
2015-Jul-21 14:32N 34°41' E 135°11'0 0.0
2015-Jul-21 13:26N 34°41' E 135°11'0 0.0
2015-Jul-21 12:33N 34°41' E 135°11'7 7.3
2015-Jul-21 11:33N 34°35' E 135°06'2 1.6
2015-Jul-21 10:33N 34°37' E 135°06'6 5.8
2015-Jul-21 09:32N 34°41' E 135°11'5 5.1
2015-Jul-21 08:34N 34°36' E 135°08'5 5.0
2015-Jul-21 07:33N 34°41' E 135°11'0 0.0
2015-Jul-21 06:25N 34°41' E 135°11'0 0.0
2015-Jul-21 05:31N 34°41' E 135°11'2 2.1
2015-Jul-21 04:33N 34°39' E 135°11'2 2.1
2015-Jul-21 03:33N 34°37' E 135°13'4 3.7
2015-Jul-21 02:32N 34°41' E 135°11'0 0.0
2015-Jul-21 01:32N 34°41' E 135°11'0 0.0
2015-Jul-21 00:32N 34°41' E 135°11'0 0.0
2015-Jul-20 23:32N 34°41' E 135°11'0 0.0
2015-Jul-20 22:32N 34°41' E 135°11'0 0.0
2015-Jul-20 21:20N 34°41' E 135°11'0 0.0
2015-Jul-20 20:32N 34°41' E 135°11'0 0.0
2015-Jul-20 19:32N 34°41' E 135°11'0 0.0
2015-Jul-20 18:20N 34°41' E 135°11'0 0.0
2015-Jul-20 17:32N 34°41' E 135°11'0 0.0
2015-Jul-20 16:32N 34°41' E 135°11'0 0.0
2015-Jul-20 15:32N 34°41' E 135°11'0 0.0
2015-Jul-20 14:20N 34°41' E 135°11'0 0.0
2015-Jul-20 13:32N 34°41' E 135°11'0 0.0
2015-Jul-20 12:33N 34°41' E 135°11'6 6.0
2015-Jul-20 11:33N 34°36' E 135°07'1 0.8
2015-Jul-20 10:33N 34°37' E 135°06'6 5.4
2015-Jul-20 09:29N 34°41' E 135°11'2 2.2
2015-Jul-20 08:33N 34°39' E 135°11'2 2.5
2015-Jul-20 07:33N 34°37' E 135°13'4 3.9
2015-Jul-20 06:29N 34°41' E 135°11'0 0.0
2015-Jul-20 05:29N 34°41' E 135°11'2 2.3
2015-Jul-20 04:33N 34°39' E 135°11'2 1.6
2015-Jul-20 03:33N 34°38' E 135°12'3 3.4
2015-Jul-20 02:33N 34°41' E 135°11'0 0.0
2015-Jul-20 01:33N 34°41' E 135°11'0 0.0
2015-Jul-20 00:33N 34°41' E 135°11'0 0.0
2015-Jul-19 23:33N 34°41' E 135°11'0 0.0
2015-Jul-19 22:33N 34°41' E 135°11'0 0.0
2015-Jul-19 21:33N 34°41' E 135°11'0 0.0
2015-Jul-19 20:33N 34°41' E 135°11'0 0.0
2015-Jul-19 19:33N 34°41' E 135°11'0 0.0
2015-Jul-19 18:33N 34°41' E 135°11'0 0.0
2015-Jul-19 17:33N 34°41' E 135°11'0 0.0
2015-Jul-19 16:33N 34°41' E 135°11'0 0.0
2015-Jul-19 15:33N 34°41' E 135°11'0 0.0
2015-Jul-19 14:33N 34°41' E 135°11'0 0.0
2015-Jul-19 13:33N 34°41' E 135°11'1 0.5
2015-Jul-19 12:33N 34°40' E 135°12'1110.7
2015-Jul-19 11:34N 34°34' E 135°02'5 5.4
2015-Jul-19 10:34N 34°36' E 135°08'6 5.5
2015-Jul-19 09:32N 34°41' E 135°11'1 0.9
2015-Jul-19 08:33N 34°40' E 135°12'3 3.4
2015-Jul-19 07:33N 34°37' E 135°13'4 3.8
2015-Jul-19 06:26N 34°41' E 135°11'0 0.0
2015-Jul-19 05:32N 34°41' E 135°11'2 2.4
2015-Jul-19 04:33N 34°38' E 135°11'2 0.6
2015-Jul-19 00:33N 34°41' E 135°11'0 0.0
2015-Jul-18 23:27N 34°41' E 135°11'0 0.0
2015-Jul-18 22:33N 34°41' E 135°11'0 0.0
2015-Jul-18 21:33N 34°41' E 135°11'0 0.0
2015-Jul-18 20:33N 34°41' E 135°11'0 0.0
2015-Jul-18 19:33N 34°41' E 135°11'0 0.0
2015-Jul-18 18:27N 34°41' E 135°11'0 0.0
2015-Jul-18 17:33N 34°41' E 135°11'0 0.0
2015-Jul-18 16:33N 34°41' E 135°11'0 0.0
2015-Jul-18 15:27N 34°41' E 135°11'0 0.0
2015-Jul-18 14:33N 34°41' E 135°11'0 0.0
2015-Jul-18 13:33N 34°41' E 135°11'0 0.0
2015-Jul-18 12:33N 34°41' E 135°11'7 6.6
2015-Jul-18 11:33N 34°36' E 135°06'1 0.8
2015-Jul-18 10:33N 34°37' E 135°06'6 5.5
2015-Jul-18 09:29N 34°41' E 135°11'  
Track history (hours):
 
Tides and Currents Weather Stations Pressure Air Temp Water Temp Dewpoint Dewpoint Depression Visibility Wind Speed Wind Dir Waves Ship Positions

Luminous Kobe-2

Last reported at 2015-Jul-28 09:28 UTC. Time now 2015-Jul-28 10:22 UTC.
Position N 34°41' E 135°11'.

Length 105 m; draft 4.5 m.

Type: Passenger vessel. MMSI: 431000469.

Date/timePositionNaut miles runAvg speedWind from/ knotsBaromVisibWave heightAir tempDewpointWater temp
2015-Jul-28 09:28N 34°41' E 135°11'5 5.5
2015-Jul-28 08:33N 34°37' E 135°07'5 4.4
2015-Jul-28 07:24N 34°41' E 135°11'0 0.0
2015-Jul-28 06:30N 34°41' E 135°11'0 0.0
2015-Jul-28 05:30N 34°41' E 135°11'2 2.4
2015-Jul-28 04:34N 34°39' E 135°11'2 2.1
2015-Jul-28 03:34N 34°37' E 135°13'4 3.4
2015-Jul-28 02:21N 34°41' E 135°11'0 0.0
2015-Jul-28 01:21N 34°41' E 135°11'0 0.0
2015-Jul-28 00:21N 34°41' E 135°11'0 0.0
2015-Jul-27 23:33N 34°41' E 135°11'0 0.0
2015-Jul-27 22:33N 34°41' E 135°11'0 0.0
2015-Jul-27 21:27N 34°41' E 135°11'0 0.0
2015-Jul-27 20:33N 34°41' E 135°11'0 0.0
2015-Jul-27 19:33N 34°41' E 135°11'0 0.0
2015-Jul-27 18:33N 34°41' E 135°11'0 0.0
2015-Jul-27 17:33N 34°41' E 135°11'0 0.0
2015-Jul-27 16:33N 34°41' E 135°11'0 0.0
2015-Jul-27 15:33N 34°41' E 135°11'0 0.0
2015-Jul-27 14:33N 34°41' E 135°11'0 0.0
2015-Jul-27 13:33N 34°41' E 135°11'0 0.0
2015-Jul-27 12:33N 34°41' E 135°11'6 6.3
2015-Jul-27 11:33N 34°36' E 135°07'1 1.0
2015-Jul-27 10:33N 34°37' E 135°06'6 6.0
2015-Jul-27 09:33N 34°41' E 135°11'5 5.0
2015-Jul-27 08:33N 34°37' E 135°07'5 4.7
2015-Jul-27 07:30N 34°41' E 135°11'0 0.0
2015-Jul-27 06:30N 34°41' E 135°11'0 0.0
2015-Jul-27 05:24N 34°41' E 135°11'2 2.1
2015-Jul-27 04:33N 34°39' E 135°11'2 2.4
2015-Jul-27 03:33N 34°37' E 135°13'4 3.9
2015-Jul-27 02:33N 34°41' E 135°11'0 0.0
2015-Jul-27 01:33N 34°41' E 135°11'0 0.0
2015-Jul-27 00:33N 34°41' E 135°11'0 0.0
2015-Jul-26 23:33N 34°41' E 135°11'0 0.0
2015-Jul-26 21:33N 34°41' E 135°11'0 0.0
2015-Jul-26 20:33N 34°41' E 135°11'0 0.0
2015-Jul-26 19:33N 34°41' E 135°11'0 0.0
2015-Jul-26 18:33N 34°41' E 135°11'0 0.0
2015-Jul-26 17:27N 34°41' E 135°11'0 0.0
2015-Jul-26 16:33N 34°41' E 135°11'0 0.0
2015-Jul-26 15:33N 34°41' E 135°11'0 0.0
2015-Jul-26 14:33N 34°41' E 135°11'0 0.0
2015-Jul-26 13:21N 34°41' E 135°11'0 0.0
2015-Jul-26 12:33N 34°41' E 135°11'7 6.9
2015-Jul-26 11:33N 34°35' E 135°06'1 1.3
2015-Jul-26 10:34N 34°36' E 135°07'6 4.7
2015-Jul-26 09:20N 34°41' E 135°11'1 1.5
2015-Jul-26 08:33N 34°40' E 135°12'3 2.8
2015-Jul-26 07:33N 34°37' E 135°13'4 3.4
2015-Jul-26 06:26N 34°41' E 135°11'0 0.0
2015-Jul-26 05:32N 34°41' E 135°11'2 1.9
2015-Jul-26 04:33N 34°39' E 135°11'2 1.8
2015-Jul-26 03:33N 34°38' E 135°13'3 2.9
2015-Jul-26 02:22N 34°41' E 135°11'0 0.0
2015-Jul-26 01:28N 34°41' E 135°11'0 0.0
2015-Jul-26 00:22N 34°41' E 135°11'0 0.0
2015-Jul-25 23:28N 34°41' E 135°11'0 0.0
2015-Jul-25 22:28N 34°41' E 135°11'0 0.0
2015-Jul-25 21:28N 34°41' E 135°11'0 0.0
2015-Jul-25 20:28N 34°41' E 135°11'0 0.0
2015-Jul-25 19:28N 34°41' E 135°11'0 0.0
2015-Jul-25 18:28N 34°41' E 135°11'0 0.0
2015-Jul-25 17:28N 34°41' E 135°11'0 0.0
2015-Jul-25 16:28N 34°41' E 135°11'0 0.0
2015-Jul-25 15:28N 34°41' E 135°11'0 0.0
2015-Jul-25 14:28N 34°41' E 135°11'0 0.0
2015-Jul-25 13:16N 34°41' E 135°11'0 0.0
2015-Jul-25 12:33N 34°41' E 135°11'6 6.1
2015-Jul-25 11:33N 34°42' E 135°19'4 4.0
2015-Jul-25 10:33N 34°38' E 135°17'5 4.3
2015-Jul-25 09:22N 34°41' E 135°11'1 0.7
2015-Jul-25 08:34N 34°40' E 135°12'3 3.3
2015-Jul-25 07:34N 34°37' E 135°13'4 3.6
2015-Jul-25 06:28N 34°41' E 135°11'0 0.0
2015-Jul-25 05:28N 34°41' E 135°11'2 1.9
2015-Jul-25 04:33N 34°39' E 135°11'2 1.8
2015-Jul-25 03:33N 34°38' E 135°12'3 3.2
2015-Jul-25 02:30N 34°41' E 135°11'0 0.0
2015-Jul-25 01:30N 34°41' E 135°11'0 0.0
2015-Jul-25 00:30N 34°41' E 135°11'0 0.0
2015-Jul-24 23:30N 34°41' E 135°11'0 0.0
2015-Jul-24 22:30N 34°41' E 135°11'0 0.0
2015-Jul-24 21:30N 34°41' E 135°11'0 0.0
2015-Jul-24 20:30N 34°41' E 135°11'0 0.0
2015-Jul-24 19:30N 34°41' E 135°11'0 0.0
2015-Jul-24 18:30N 34°41' E 135°11'0 0.0
2015-Jul-24 17:30N 34°41' E 135°11'0 0.0
2015-Jul-24 16:30N 34°41' E 135°11'0 0.0
2015-Jul-24 15:30N 34°41' E 135°11'0 0.0
2015-Jul-24 14:18N 34°41' E 135°11'0 0.0
2015-Jul-24 13:30N 34°41' E 135°11'0 0.0
2015-Jul-24 12:30N 34°41' E 135°11'7 7.6
2015-Jul-24 11:33N 34°35' E 135°06'2 1.9
2015-Jul-24 10:33N 34°37' E 135°07'5 5.4
2015-Jul-24 09:33N 34°41' E 135°11'5 4.9
2015-Jul-24 08:34N 34°37' E 135°07'5 4.8
2015-Jul-24 07:32N 34°41' E 135°11'0 0.0
2015-Jul-24 06:32N 34°41' E 135°11'0 0.0
2015-Jul-24 05:26N 34°41' E 135°11'2 2.6
2015-Jul-24 04:33N 34°39' E 135°11'2 2.2
2015-Jul-24 03:33N 34°37' E 135°13'4 3.8
2015-Jul-24 02:30N 34°41' E 135°11'0 0.0
2015-Jul-24 01:30N 34°41' E 135°11'0 0.0
2015-Jul-24 00:30N 34°41' E 135°11'0 0.0
2015-Jul-23 23:30N 34°41' E 135°11'0 0.0
2015-Jul-23 22:30N 34°41' E 135°11'0 0.0
2015-Jul-23 21:30N 34°41' E 135°11'0 0.0
2015-Jul-23 20:30N 34°41' E 135°11'0 0.0
2015-Jul-23 19:30N 34°41' E 135°11'0 0.0
2015-Jul-23 18:30N 34°41' E 135°11'0 0.0
2015-Jul-23 17:30N 34°41' E 135°11'0 0.0
2015-Jul-23 16:30N 34°41' E 135°11'0 0.0
2015-Jul-23 15:30N 34°41' E 135°11'0 0.0
2015-Jul-23 14:30N 34°41' E 135°11'0 0.0
2015-Jul-23 13:30N 34°41' E 135°11'0 0.1
2015-Jul-23 12:12N 34°41' E 135°11'6 9.3
2015-Jul-23 11:33N 34°36' E 135°07'1 0.9
2015-Jul-23 10:33N 34°37' E 135°07'6 5.6
2015-Jul-23 09:33N 34°41' E 135°11'5 5.3
2015-Jul-23 08:34N 34°37' E 135°07'5 4.3
2015-Jul-23 07:19N 34°41' E 135°11'0 0.0
2015-Jul-23 06:25N 34°41' E 135°11'0 0.0
2015-Jul-23 05:25N 34°41' E 135°11'2 2.6
2015-Jul-23 04:33N 34°39' E 135°11'2 1.6
2015-Jul-23 03:33N 34°37' E 135°13'3 3.5
2015-Jul-23 02:33N 34°41' E 135°11'0 0.0
2015-Jul-23 01:33N 34°41' E 135°11'0 0.0
2015-Jul-23 00:33N 34°41' E 135°11'0 0.0
2015-Jul-22 23:33N 34°41' E 135°11'0 0.0
2015-Jul-22 22:33N 34°41' E 135°11'0 0.0
2015-Jul-22 21:33N 34°41' E 135°11'0 0.0
2015-Jul-22 20:33N 34°41' E 135°11'0 0.0
2015-Jul-22 19:27N 34°41' E 135°11'0 0.0
2015-Jul-22 18:33N 34°41' E 135°11'0 0.0
2015-Jul-22 17:33N 34°41' E 135°11'0 0.0
2015-Jul-22 16:33N 34°41' E 135°11'0 0.0
2015-Jul-22 15:33N 34°41' E 135°11'0 0.0
2015-Jul-22 14:33N 34°41' E 135°11'0 0.0
2015-Jul-22 13:27N 34°41' E 135°11'0 0.0
2015-Jul-22 12:31N 34°41' E 135°11'6 6.7
2015-Jul-22 11:33N 34°36' E 135°06'1 0.9
2015-Jul-22 10:33N 34°37' E 135°07'6 5.5
2015-Jul-22 09:32N 34°41' E 135°11'5 5.1
2015-Jul-22 08:34N 34°37' E 135°08'5 4.4
2015-Jul-22 07:26N 34°41' E 135°11'0 0.0
2015-Jul-22 06:32N 34°41' E 135°11'0 0.0
2015-Jul-22 05:26N 34°41' E 135°11'2 2.8
2015-Jul-22 04:33N 34°38' E 135°11'2 1.7
2015-Jul-22 03:33N 34°37' E 135°13'4 3.7
2015-Jul-22 02:32N 34°41' E 135°11'0 0.0
2015-Jul-22 01:26N 34°41' E 135°11'0 0.0
2015-Jul-22 00:32N 34°41' E 135°11'0 0.0
2015-Jul-21 23:14N 34°41' E 135°11'0 0.0
2015-Jul-21 22:32N 34°41' E 135°11'0 0.0
2015-Jul-21 21:26N 34°41' E 135°11'0 0.0
2015-Jul-21 20:32N 34°41' E 135°11'0 0.0
2015-Jul-21 19:26N 34°41' E 135°11'0 0.0
2015-Jul-21 18:32N 34°41' E 135°11'0 0.0
2015-Jul-21 17:32N 34°41' E 135°11'0 0.0
2015-Jul-21 16:32N 34°41' E 135°11'0 0.0
2015-Jul-21 15:32N 34°41' E 135°11'0 0.0
2015-Jul-21 14:32N 34°41' E 135°11'0 0.0
2015-Jul-21 13:26N 34°41' E 135°11'0 0.0
2015-Jul-21 12:33N 34°41' E 135°11'7 7.3
2015-Jul-21 11:33N 34°35' E 135°06'2 1.6
2015-Jul-21 10:33N 34°37' E 135°06'6 5.8
2015-Jul-21 09:32N 34°41' E 135°11'5 5.1
2015-Jul-21 08:34N 34°36' E 135°08'5 5.0
2015-Jul-21 07:33N 34°41' E 135°11'0 0.0
2015-Jul-21 06:25N 34°41' E 135°11'0 0.0
2015-Jul-21 05:31N 34°41' E 135°11'2 2.1
2015-Jul-21 04:33N 34°39' E 135°11'2 2.1
2015-Jul-21 03:33N 34°37' E 135°13'4 3.7
2015-Jul-21 02:32N 34°41' E 135°11'0 0.0
2015-Jul-21 01:32N 34°41' E 135°11'0 0.0
2015-Jul-21 00:32N 34°41' E 135°11'0 0.0
2015-Jul-20 23:32N 34°41' E 135°11'0 0.0
2015-Jul-20 22:32N 34°41' E 135°11'0 0.0
2015-Jul-20 21:20N 34°41' E 135°11'0 0.0
2015-Jul-20 20:32N 34°41' E 135°11'0 0.0
2015-Jul-20 19:32N 34°41' E 135°11'0 0.0
2015-Jul-20 18:20N 34°41' E 135°11'0 0.0
2015-Jul-20 17:32N 34°41' E 135°11'0 0.0
2015-Jul-20 16:32N 34°41' E 135°11'0 0.0
2015-Jul-20 15:32N 34°41' E 135°11'0 0.0
2015-Jul-20 14:20N 34°41' E 135°11'0 0.0
2015-Jul-20 13:32N 34°41' E 135°11'0 0.0
2015-Jul-20 12:33N 34°41' E 135°11'6 6.0
2015-Jul-20 11:33N 34°36' E 135°07'1 0.8
2015-Jul-20 10:33N 34°37' E 135°06'6 5.4
2015-Jul-20 09:29N 34°41' E 135°11'2 2.2
2015-Jul-20 08:33N 34°39' E 135°11'2 2.5
2015-Jul-20 07:33N 34°37' E 135°13'4 3.9
2015-Jul-20 06:29N 34°41' E 135°11'0 0.0
2015-Jul-20 05:29N 34°41' E 135°11'2 2.3
2015-Jul-20 04:33N 34°39' E 135°11'2 1.6
2015-Jul-20 03:33N 34°38' E 135°12'3 3.4
2015-Jul-20 02:33N 34°41' E 135°11'0 0.0
2015-Jul-20 01:33N 34°41' E 135°11'0 0.0
2015-Jul-20 00:33N 34°41' E 135°11'0 0.0
2015-Jul-19 23:33N 34°41' E 135°11'0 0.0
2015-Jul-19 22:33N 34°41' E 135°11'0 0.0
2015-Jul-19 21:33N 34°41' E 135°11'0 0.0
2015-Jul-19 20:33N 34°41' E 135°11'0 0.0
2015-Jul-19 19:33N 34°41' E 135°11'0 0.0
2015-Jul-19 18:33N 34°41' E 135°11'0 0.0
2015-Jul-19 17:33N 34°41' E 135°11'0 0.0
2015-Jul-19 16:33N 34°41' E 135°11'0 0.0
2015-Jul-19 15:33N 34°41' E 135°11'0 0.0
2015-Jul-19 14:33N 34°41' E 135°11'0 0.0
2015-Jul-19 13:33N 34°41' E 135°11'1 0.5
2015-Jul-19 12:33N 34°40' E 135°12'1110.7
2015-Jul-19 11:34N 34°34' E 135°02'5 5.4
2015-Jul-19 10:34N 34°36' E 135°08'6 5.5
2015-Jul-19 09:32N 34°41' E 135°11'1 0.9
2015-Jul-19 08:33N 34°40' E 135°12'3 3.4
2015-Jul-19 07:33N 34°37' E 135°13'4 3.8
2015-Jul-19 06:26N 34°41' E 135°11'0 0.0
2015-Jul-19 05:32N 34°41' E 135°11'2 2.4
2015-Jul-19 04:33N 34°38' E 135°11'2 0.6
2015-Jul-19 00:33N 34°41' E 135°11'0 0.0
2015-Jul-18 23:27N 34°41' E 135°11'0 0.0
2015-Jul-18 22:33N 34°41' E 135°11'0 0.0
2015-Jul-18 21:33N 34°41' E 135°11'0 0.0
2015-Jul-18 20:33N 34°41' E 135°11'0 0.0
2015-Jul-18 19:33N 34°41' E 135°11'0 0.0
2015-Jul-18 18:27N 34°41' E 135°11'0 0.0
2015-Jul-18 17:33N 34°41' E 135°11'0 0.0
2015-Jul-18 16:33N 34°41' E 135°11'0 0.0
2015-Jul-18 15:27N 34°41' E 135°11'0 0.0
2015-Jul-18 14:33N 34°41' E 135°11'0 0.0
2015-Jul-18 13:33N 34°41' E 135°11'0 0.0
2015-Jul-18 12:33N 34°41' E 135°11'7 6.6
2015-Jul-18 11:33N 34°36' E 135°06'1 0.8
2015-Jul-18 10:33N 34°37' E 135°06'6 5.5
2015-Jul-18 09:29N 34°41' E 135°11'  

Dump ship's entire track history